SHPE weather

Pelluco Heliport
Puerto Montt, Los Lagos Region, Chile

Public forecast

Using degrees Celsius for public forecast. Weather courtesy of forecast.io.

Closest aviation weather report (METAR) to Pelluco Heliport

Closest report is El Tepual Airport, 9.0 nm (16.8 km) WNW. Retrieved 2020/07/09 18:00 UTC (32 minutes ago):

SCTE 091800Z 27011KT 7000 -SHRA SCT006 BKN040 OVC080 10/09 Q1004 NOSIG

Closest aviation forecast (TAF) to Pelluco Heliport

Closest forecast is El Tepual Airport, 9.0 nm (16.8 km) WNW. Retrieved 2020/07/09 18:00 UTC (32 minutes ago):

TAF SCTE 091628Z 0918/1018 31010KT 9999 BKN018 BKN030 TX11/0918Z TN03/1010Z BECMG 0918/0920 25007KT 8000 -SHRA BKN012 OVC030 BECMG 1003/1005 30007KT 9999 NSW BKN025 TEMPO 1006/1014 8000 -SHRA